Schererville, Indiana
Current Conditions -  °F | °C
As of 6:15 AM on Thursday 29 Jan 2015 (Local Time) from KIGQ Reporting Station
Scattered Clouds Scattered Clouds  
Wind Chill: 28°   Ceiling: Unl
Heat Index: 33°   Visibility: 10mi
Dew Point: 29°   Wind: 6mph
Humidity: 84%   Direction: 220°SW
Pressure: 29.7"   Gusts: NA
Location:  41.49°N, 87.48°W
Report Text: KIGQ 291215Z AUTO 22005KT 10SM SCT035 01/M02 A2970 RMK AO2 T00071018
Loading
Personal Weather Stations






























Interactive Weather Map New forecast layout! Learn more

10-Day Weather Forecast

Advertisements
Track Severe Weather on mobile